sensor_id;sensor_type;location;lat;lon;timestamp;pressure;altitude;pressure_sealevel;temperature;humidity
48874;BME280;35220;46.204;5.220;2022-12-11T00:00:25;98163.47;;;-3.11;80.94
48874;BME280;35220;46.204;5.220;2022-12-11T00:05:26;98174.78;;;-3.13;80.88
48874;BME280;35220;46.204;5.220;2022-12-11T00:10:26;98181.69;;;-3.22;81.15
48874;BME280;35220;46.204;5.220;2022-12-11T00:15:27;98179.00;;;-3.20;80.69
48874;BME280;35220;46.204;5.220;2022-12-11T00:20:28;98187.59;;;-3.21;81.08
48874;BME280;35220;46.204;5.220;2022-12-11T00:25:28;98177.75;;;-3.25;81.04
48874;BME280;35220;46.204;5.220;2022-12-11T00:30:29;98176.97;;;-3.25;81.38
48874;BME280;35220;46.204;5.220;2022-12-11T00:35:29;98172.66;;;-3.25;81.53
48874;BME280;35220;46.204;5.220;2022-12-11T00:40:33;98170.09;;;-3.25;81.23
48874;BME280;35220;46.204;5.220;2022-12-11T00:45:39;98172.66;;;-3.25;81.29
48874;BME280;35220;46.204;5.220;2022-12-11T00:50:40;98174.41;;;-3.25;81.71
48874;BME280;35220;46.204;5.220;2022-12-11T00:55:41;98176.16;;;-3.26;81.55
48874;BME280;35220;46.204;5.220;2022-12-11T01:00:42;98186.97;;;-3.23;81.41
48874;BME280;35220;46.204;5.220;2022-12-11T01:05:53;98206.72;;;-3.26;81.66
48874;BME280;35220;46.204;5.220;2022-12-11T01:11:03;98205.31;;;-3.28;81.35
48874;BME280;35220;46.204;5.220;2022-12-11T01:16:10;98207.69;;;-3.27;81.91
48874;BME280;35220;46.204;5.220;2022-12-11T01:21:12;98233.69;;;-3.08;80.71
48874;BME280;35220;46.204;5.220;2022-12-11T01:26:14;98228.13;;;-2.89;80.52
48874;BME280;35220;46.204;5.220;2022-12-11T01:31:15;98215.66;;;-2.83;79.92
48874;BME280;35220;46.204;5.220;2022-12-11T01:36:19;98215.63;;;-2.75;80.02
48874;BME280;35220;46.204;5.220;2022-12-11T01:41:20;98225.38;;;-2.64;79.44
48874;BME280;35220;46.204;5.220;2022-12-11T01:46:20;98225.38;;;-2.64;79.33
48874;BME280;35220;46.204;5.220;2022-12-11T01:51:22;98227.88;;;-2.56;79.32
48874;BME280;35220;46.204;5.220;2022-12-11T01:56:23;98231.31;;;-2.49;79.00
48874;BME280;35220;46.204;5.220;2022-12-11T02:01:31;98224.91;;;-2.44;78.63
48874;BME280;35220;46.204;5.220;2022-12-11T02:06:38;98206.94;;;-2.51;79.42
48874;BME280;35220;46.204;5.220;2022-12-11T02:12:00;98218.28;;;-2.54;79.05
48874;BME280;35220;46.204;5.220;2022-12-11T02:17:27;98217.75;;;-2.49;79.37
48874;BME280;35220;46.204;5.220;2022-12-11T02:22:46;98222.97;;;-2.42;78.78
48874;BME280;35220;46.204;5.220;2022-12-11T02:33:25;98227.56;;;-2.38;78.74
48874;BME280;35220;46.204;5.220;2022-12-11T02:38:33;98232.47;;;-2.36;78.17
48874;BME280;35220;46.204;5.220;2022-12-11T02:43:36;98221.84;;;-2.40;78.12
48874;BME280;35220;46.204;5.220;2022-12-11T02:48:38;98239.31;;;-2.52;78.47
48874;BME280;35220;46.204;5.220;2022-12-11T02:53:41;98224.63;;;-2.50;78.81
48874;BME280;35220;46.204;5.220;2022-12-11T02:58:54;98216.72;;;-2.40;78.38
48874;BME280;35220;46.204;5.220;2022-12-11T03:03:59;98207.81;;;-2.44;78.33
48874;BME280;35220;46.204;5.220;2022-12-11T03:09:00;98197.88;;;-2.39;78.50
48874;BME280;35220;46.204;5.220;2022-12-11T03:14:01;98199.13;;;-2.50;78.34
48874;BME280;35220;46.204;5.220;2022-12-11T03:19:29;98210.38;;;-2.44;78.75
48874;BME280;35220;46.204;5.220;2022-12-11T03:30:36;98190.75;;;-2.43;78.64
48874;BME280;35220;46.204;5.220;2022-12-11T03:35:32;98198.75;;;-2.61;78.90
48874;BME280;35220;46.204;5.220;2022-12-11T03:40:34;98197.50;;;-2.65;79.14
48874;BME280;35220;46.204;5.220;2022-12-11T03:45:37;98187.91;;;-2.78;79.71
48874;BME280;35220;46.204;5.220;2022-12-11T03:50:38;98200.88;;;-2.88;79.83
48874;BME280;35220;46.204;5.220;2022-12-11T03:55:40;98190.19;;;-2.83;79.72
48874;BME280;35220;46.204;5.220;2022-12-11T04:00:41;98187.28;;;-2.80;79.44
48874;BME280;35220;46.204;5.220;2022-12-11T04:05:45;98175.94;;;-2.78;79.86
48874;BME280;35220;46.204;5.220;2022-12-11T04:10:47;98189.91;;;-2.74;79.68
48874;BME280;35220;46.204;5.220;2022-12-11T04:15:47;98193.19;;;-2.65;79.16
48874;BME280;35220;46.204;5.220;2022-12-11T04:20:48;98208.19;;;-2.85;79.54
48874;BME280;35220;46.204;5.220;2022-12-11T04:26:11;98210.63;;;-2.92;79.85
48874;BME280;35220;46.204;5.220;2022-12-11T04:31:17;98203.84;;;-2.99;80.02
48874;BME280;35220;46.204;5.220;2022-12-11T04:36:18;98198.69;;;-2.91;80.04
48874;BME280;35220;46.204;5.220;2022-12-11T04:41:18;98189.94;;;-2.97;80.28
48874;BME280;35220;46.204;5.220;2022-12-11T04:46:21;98187.47;;;-3.05;80.65
48874;BME280;35220;46.204;5.220;2022-12-11T04:51:22;98191.84;;;-3.14;81.31
48874;BME280;35220;46.204;5.220;2022-12-11T04:56:22;98194.16;;;-3.04;80.49
48874;BME280;35220;46.204;5.220;2022-12-11T05:01:23;98186.78;;;-2.99;80.40
48874;BME280;35220;46.204;5.220;2022-12-11T05:06:23;98178.56;;;-2.86;80.09
48874;BME280;35220;46.204;5.220;2022-12-11T05:11:24;98187.78;;;-2.85;80.52
48874;BME280;35220;46.204;5.220;2022-12-11T05:16:24;98182.38;;;-3.05;80.71
48874;BME280;35220;46.204;5.220;2022-12-11T05:21:25;98169.69;;;-3.13;80.93
48874;BME280;35220;46.204;5.220;2022-12-11T05:26:25;98160.75;;;-3.09;80.55
48874;BME280;35220;46.204;5.220;2022-12-11T05:31:26;98170.25;;;-3.03;81.05
48874;BME280;35220;46.204;5.220;2022-12-11T05:36:30;98169.84;;;-2.92;80.39
48874;BME280;35220;46.204;5.220;2022-12-11T05:41:31;98166.22;;;-2.97;80.31
48874;BME280;35220;46.204;5.220;2022-12-11T05:46:32;98166.94;;;-3.03;80.24
48874;BME280;35220;46.204;5.220;2022-12-11T05:51:33;98164.25;;;-3.10;80.47
48874;BME280;35220;46.204;5.220;2022-12-11T05:56:34;98168.16;;;-2.99;80.83
48874;BME280;35220;46.204;5.220;2022-12-11T06:01:37;98157.03;;;-2.83;80.19
48874;BME280;35220;46.204;5.220;2022-12-11T06:06:39;98156.59;;;-2.87;80.45
48874;BME280;35220;46.204;5.220;2022-12-11T06:11:39;98163.44;;;-2.88;80.09
48874;BME280;35220;46.204;5.220;2022-12-11T06:16:40;98171.84;;;-3.02;80.39
48874;BME280;35220;46.204;5.220;2022-12-11T06:21:40;98170.31;;;-3.11;80.55
48874;BME280;35220;46.204;5.220;2022-12-11T06:26:41;98158.69;;;-2.91;80.34
48874;BME280;35220;46.204;5.220;2022-12-11T06:31:41;98155.81;;;-2.88;80.47
48874;BME280;35220;46.204;5.220;2022-12-11T06:36:42;98156.88;;;-2.82;80.51
48874;BME280;35220;46.204;5.220;2022-12-11T06:41:42;98148.16;;;-2.73;80.35
48874;BME280;35220;46.204;5.220;2022-12-11T06:46:43;98156.59;;;-2.87;80.13
48874;BME280;35220;46.204;5.220;2022-12-11T06:51:43;98149.16;;;-2.97;80.89
48874;BME280;35220;46.204;5.220;2022-12-11T06:56:44;98143.00;;;-3.02;81.28
48874;BME280;35220;46.204;5.220;2022-12-11T07:01:44;98149.31;;;-3.13;81.12
48874;BME280;35220;46.204;5.220;2022-12-11T07:06:45;98157.56;;;-3.11;81.19
48874;BME280;35220;46.204;5.220;2022-12-11T07:11:48;98169.09;;;-3.15;81.40
48874;BME280;35220;46.204;5.220;2022-12-11T07:16:49;98177.91;;;-3.26;81.47
48874;BME280;35220;46.204;5.220;2022-12-11T07:21:49;98161.09;;;-3.35;82.05
48874;BME280;35220;46.204;5.220;2022-12-11T07:26:50;98153.03;;;-3.39;81.92
48874;BME280;35220;46.204;5.220;2022-12-11T07:31:51;98155.66;;;-3.32;81.99
48874;BME280;35220;46.204;5.220;2022-12-11T07:36:51;98163.38;;;-3.40;82.65
48874;BME280;35220;46.204;5.220;2022-12-11T07:41:52;98162.69;;;-3.34;82.45
48874;BME280;35220;46.204;5.220;2022-12-11T07:46:52;98145.88;;;-3.20;81.80
48874;BME280;35220;46.204;5.220;2022-12-11T07:51:53;98139.91;;;-3.13;81.67
48874;BME280;35220;46.204;5.220;2022-12-11T07:56:53;98141.63;;;-3.05;81.27
48874;BME280;35220;46.204;5.220;2022-12-11T08:01:53;98138.03;;;-2.96;81.09
48874;BME280;35220;46.204;5.220;2022-12-11T08:06:54;98121.94;;;-2.96;80.77
48874;BME280;35220;46.204;5.220;2022-12-11T08:11:54;98130.66;;;-2.91;81.24
48874;BME280;35220;46.204;5.220;2022-12-11T08:16:55;98129.66;;;-2.90;81.54
48874;BME280;35220;46.204;5.220;2022-12-11T08:21:56;98131.53;;;-2.69;80.92
48874;BME280;35220;46.204;5.220;2022-12-11T08:26:56;98128.22;;;-2.69;80.45
48874;BME280;35220;46.204;5.220;2022-12-11T08:31:57;98128.81;;;-2.67;80.21
48874;BME280;35220;46.204;5.220;2022-12-11T08:36:57;98127.16;;;-2.60;80.48
48874;BME280;35220;46.204;5.220;2022-12-11T08:41:58;98126.38;;;-2.60;80.06
48874;BME280;35220;46.204;5.220;2022-12-11T08:46:58;98123.81;;;-2.60;79.88
48874;BME280;35220;46.204;5.220;2022-12-11T08:51:59;98138.19;;;-2.59;79.67
48874;BME280;35220;46.204;5.220;2022-12-11T08:56:59;98145.38;;;-2.48;79.19
48874;BME280;35220;46.204;5.220;2022-12-11T09:01:59;98132.00;;;-2.65;79.90
48874;BME280;35220;46.204;5.220;2022-12-11T09:07:00;98147.44;;;-2.81;79.77
48874;BME280;35220;46.204;5.220;2022-12-11T09:12:00;98142.91;;;-2.71;79.29
48874;BME280;35220;46.204;5.220;2022-12-11T09:17:02;98137.34;;;-2.75;79.64
48874;BME280;35220;46.204;5.220;2022-12-11T09:22:04;98143.84;;;-2.72;79.72
48874;BME280;35220;46.204;5.220;2022-12-11T09:27:05;98143.59;;;-2.77;79.44
48874;BME280;35220;46.204;5.220;2022-12-11T09:32:05;98142.72;;;-2.70;79.01
48874;BME280;35220;46.204;5.220;2022-12-11T09:37:06;98151.44;;;-2.79;79.33
48874;BME280;35220;46.204;5.220;2022-12-11T09:42:31;98142.88;;;-2.86;79.50
48874;BME280;35220;46.204;5.220;2022-12-11T09:47:40;98146.41;;;-2.72;79.29
48874;BME280;35220;46.204;5.220;2022-12-11T10:14:03;98115.13;;;-2.66;78.70
48874;BME280;35220;46.204;5.220;2022-12-11T10:19:15;98113.63;;;-2.31;78.31
48874;BME280;35220;46.204;5.220;2022-12-11T10:24:21;98107.34;;;-2.13;77.51
48874;BME280;35220;46.204;5.220;2022-12-11T10:29:24;98096.06;;;-2.19;77.78
48874;BME280;35220;46.204;5.220;2022-12-11T10:34:46;98087.63;;;-2.19;77.86
48874;BME280;35220;46.204;5.220;2022-12-11T10:39:47;98085.78;;;-2.11;77.41
48874;BME280;35220;46.204;5.220;2022-12-11T10:45:03;98068.63;;;-2.17;77.53
48874;BME280;35220;46.204;5.220;2022-12-11T10:50:04;98058.38;;;-2.02;77.60
48874;BME280;35220;46.204;5.220;2022-12-11T11:00:24;98050.66;;;-1.87;76.44
48874;BME280;35220;46.204;5.220;2022-12-11T11:05:34;98045.13;;;-1.91;76.78
48874;BME280;35220;46.204;5.220;2022-12-11T11:10:35;98044.78;;;-1.87;76.46
48874;BME280;35220;46.204;5.220;2022-12-11T11:15:35;98046.16;;;-1.85;77.04
48874;BME280;35220;46.204;5.220;2022-12-11T11:20:36;98051.03;;;-1.90;76.54
48874;BME280;35220;46.204;5.220;2022-12-11T11:31:11;98051.50;;;-1.58;75.92
48874;BME280;35220;46.204;5.220;2022-12-11T11:36:24;98044.66;;;-1.58;76.17
48874;BME280;35220;46.204;5.220;2022-12-11T11:41:36;98031.97;;;-1.44;75.89
48874;BME280;35220;46.204;5.220;2022-12-11T11:46:44;98022.09;;;-1.54;75.44
48874;BME280;35220;46.204;5.220;2022-12-11T11:51:53;98007.97;;;-1.50;75.16
48874;BME280;35220;46.204;5.220;2022-12-11T11:56:55;98005.09;;;-1.40;74.77
48874;BME280;35220;46.204;5.220;2022-12-11T12:01:56;98003.97;;;-0.96;75.08
48874;BME280;35220;46.204;5.220;2022-12-11T12:12:20;97995.97;;;-1.21;74.16
48874;BME280;35220;46.204;5.220;2022-12-11T12:17:30;97997.44;;;-1.40;74.77
48874;BME280;35220;46.204;5.220;2022-12-11T12:28:24;98002.06;;;-1.22;74.11
48874;BME280;35220;46.204;5.220;2022-12-11T12:38:54;97986.38;;;-1.12;73.17
48874;BME280;35220;46.204;5.220;2022-12-11T12:44:07;97983.41;;;-1.51;74.62
48874;BME280;35220;46.204;5.220;2022-12-11T12:49:15;97975.50;;;-1.78;74.74
48874;BME280;35220;46.204;5.220;2022-12-11T12:54:17;97974.13;;;-1.80;75.23
48874;BME280;35220;46.204;5.220;2022-12-11T12:59:24;97981.59;;;-1.79;75.46
48874;BME280;35220;46.204;5.220;2022-12-11T13:04:40;97974.91;;;-1.80;74.58
48874;BME280;35220;46.204;5.220;2022-12-11T13:09:42;97977.47;;;-1.80;75.44
48874;BME280;35220;46.204;5.220;2022-12-11T13:14:42;97973.91;;;-1.57;74.79
48874;BME280;35220;46.204;5.220;2022-12-11T13:19:43;97974.03;;;-1.37;74.51
48874;BME280;35220;46.204;5.220;2022-12-11T13:25:16;97979.50;;;-1.47;73.50
48874;BME280;35220;46.204;5.220;2022-12-11T13:35:19;97977.19;;;-1.35;74.27
48874;BME280;35220;46.204;5.220;2022-12-11T13:40:23;97986.72;;;-1.22;73.56
48874;BME280;35220;46.204;5.220;2022-12-11T13:50:42;97975.16;;;-1.18;73.63
48874;BME280;35220;46.204;5.220;2022-12-11T13:55:43;97968.34;;;-1.39;74.33
48874;BME280;35220;46.204;5.220;2022-12-11T14:00:56;97979.47;;;-1.75;74.38
48874;BME280;35220;46.204;5.220;2022-12-11T14:06:02;97981.59;;;-1.79;74.76
48874;BME280;35220;46.204;5.220;2022-12-11T14:11:06;97986.84;;;-1.87;75.14
48874;BME280;35220;46.204;5.220;2022-12-11T14:16:06;97970.56;;;-1.86;75.30
48874;BME280;35220;46.204;5.220;2022-12-11T14:21:17;97972.50;;;-1.88;74.95
48874;BME280;35220;46.204;5.220;2022-12-11T14:26:22;97972.41;;;-1.73;75.35
48874;BME280;35220;46.204;5.220;2022-12-11T14:31:29;97978.06;;;-1.56;74.20
48874;BME280;35220;46.204;5.220;2022-12-11T14:36:32;97975.56;;;-1.43;74.53
48874;BME280;35220;46.204;5.220;2022-12-11T14:47:14;97980.84;;;-1.73;74.86
48874;BME280;35220;46.204;5.220;2022-12-11T14:52:18;97978.72;;;-1.41;74.01
48874;BME280;35220;46.204;5.220;2022-12-11T14:57:25;97996.41;;;-1.67;74.57
48874;BME280;35220;46.204;5.220;2022-12-11T15:02:32;97993.38;;;-1.78;74.33
48874;BME280;35220;46.204;5.220;2022-12-11T15:07:33;97989.50;;;-1.74;74.64
48874;BME280;35220;46.204;5.220;2022-12-11T15:12:34;97997.25;;;-1.60;74.43
48874;BME280;35220;46.204;5.220;2022-12-11T15:17:34;97999.16;;;-1.41;74.51
48874;BME280;35220;46.204;5.220;2022-12-11T15:22:42;97994.53;;;-1.30;74.09
48874;BME280;35220;46.204;5.220;2022-12-11T15:27:43;97997.03;;;-1.37;74.25
48874;BME280;35220;46.204;5.220;2022-12-11T15:32:44;97989.06;;;-1.27;73.82
48874;BME280;35220;46.204;5.220;2022-12-11T15:37:51;97988.16;;;-1.13;74.29
48874;BME280;35220;46.204;5.220;2022-12-11T15:42:52;97982.03;;;-1.12;73.66
48874;BME280;35220;46.204;5.220;2022-12-11T15:47:54;97987.00;;;-1.04;74.17
48874;BME280;35220;46.204;5.220;2022-12-11T15:52:55;97982.03;;;-1.19;73.98
48874;BME280;35220;46.204;5.220;2022-12-11T15:57:58;97982.69;;;-1.38;73.94
48874;BME280;35220;46.204;5.220;2022-12-11T16:03:01;97981.81;;;-1.52;74.56
48874;BME280;35220;46.204;5.220;2022-12-11T16:08:01;97993.66;;;-1.44;74.58
48874;BME280;35220;46.204;5.220;2022-12-11T16:13:01;97979.75;;;-1.35;74.61
48874;BME280;35220;46.204;5.220;2022-12-11T16:18:05;97980.38;;;-1.33;74.15
48874;BME280;35220;46.204;5.220;2022-12-11T16:23:07;97982.75;;;-1.31;74.42
48874;BME280;35220;46.204;5.220;2022-12-11T16:28:10;97988.34;;;-1.15;73.91
48874;BME280;35220;46.204;5.220;2022-12-11T16:33:11;97978.59;;;-0.98;73.70
48874;BME280;35220;46.204;5.220;2022-12-11T16:38:12;97974.41;;;-1.05;73.39
48874;BME280;35220;46.204;5.220;2022-12-11T16:43:12;97970.25;;;-1.13;73.57
48874;BME280;35220;46.204;5.220;2022-12-11T16:48:13;97971.41;;;-1.16;73.87
48874;BME280;35220;46.204;5.220;2022-12-11T16:53:13;97959.66;;;-1.10;74.05
48874;BME280;35220;46.204;5.220;2022-12-11T16:58:14;97949.25;;;-1.02;73.06
48874;BME280;35220;46.204;5.220;2022-12-11T17:03:18;97945.44;;;-1.19;73.48
48874;BME280;35220;46.204;5.220;2022-12-11T17:08:19;97943.28;;;-1.16;73.83
48874;BME280;35220;46.204;5.220;2022-12-11T17:13:19;97942.75;;;-1.11;73.28
48874;BME280;35220;46.204;5.220;2022-12-11T17:18:20;97949.44;;;-1.10;73.54
48874;BME280;35220;46.204;5.220;2022-12-11T17:23:20;97946.91;;;-1.03;73.00
48874;BME280;35220;46.204;5.220;2022-12-11T17:28:21;97936.53;;;-1.37;73.48
48874;BME280;35220;46.204;5.220;2022-12-11T17:33:21;97940.88;;;-1.30;73.88
48874;BME280;35220;46.204;5.220;2022-12-11T17:38:22;97934.66;;;-1.49;73.38
48874;BME280;35220;46.204;5.220;2022-12-11T17:43:22;97942.63;;;-1.31;73.41
48874;BME280;35220;46.204;5.220;2022-12-11T17:48:23;97948.72;;;-1.32;73.21
48874;BME280;35220;46.204;5.220;2022-12-11T17:53:23;97960.53;;;-1.31;72.94
48874;BME280;35220;46.204;5.220;2022-12-11T17:58:26;97966.75;;;-1.68;73.91
48874;BME280;35220;46.204;5.220;2022-12-11T18:03:27;97970.66;;;-1.73;74.07
48874;BME280;35220;46.204;5.220;2022-12-11T18:08:27;97972.97;;;-1.78;74.30
48874;BME280;35220;46.204;5.220;2022-12-11T18:13:29;97965.59;;;-1.66;73.94
48874;BME280;35220;46.204;5.220;2022-12-11T18:18:29;97968.94;;;-1.65;73.98
48874;BME280;35220;46.204;5.220;2022-12-11T18:23:30;97981.53;;;-1.64;74.24
48874;BME280;35220;46.204;5.220;2022-12-11T18:28:31;97960.13;;;-1.63;74.33
48874;BME280;35220;46.204;5.220;2022-12-11T18:33:35;97958.16;;;-1.61;73.90
48874;BME280;35220;46.204;5.220;2022-12-11T18:38:35;97952.41;;;-1.69;74.76
48874;BME280;35220;46.204;5.220;2022-12-11T18:43:36;97954.78;;;-1.68;74.57
48874;BME280;35220;46.204;5.220;2022-12-11T18:48:37;97965.28;;;-1.56;74.21
48874;BME280;35220;46.204;5.220;2022-12-11T18:53:38;97978.72;;;-1.47;73.76
48874;BME280;35220;46.204;5.220;2022-12-11T18:58:39;97970.41;;;-1.49;73.96
48874;BME280;35220;46.204;5.220;2022-12-11T19:03:39;97956.13;;;-1.44;73.95
48874;BME280;35220;46.204;5.220;2022-12-11T19:08:40;97959.47;;;-1.43;73.49
48874;BME280;35220;46.204;5.220;2022-12-11T19:13:41;97965.28;;;-1.56;74.10
48874;BME280;35220;46.204;5.220;2022-12-11T19:18:43;97967.31;;;-1.73;74.73
48874;BME280;35220;46.204;5.220;2022-12-11T19:23:44;97962.81;;;-1.71;74.56
48874;BME280;35220;46.204;5.220;2022-12-11T19:28:45;97955.56;;;-1.67;74.76
48874;BME280;35220;46.204;5.220;2022-12-11T19:33:46;97955.19;;;-1.64;74.44
48874;BME280;35220;46.204;5.220;2022-12-11T19:38:47;97954.00;;;-1.68;74.47
48874;BME280;35220;46.204;5.220;2022-12-11T19:43:49;97950.44;;;-1.67;74.39
48874;BME280;35220;46.204;5.220;2022-12-11T19:48:54;97959.09;;;-1.68;74.56
48874;BME280;35220;46.204;5.220;2022-12-11T19:53:56;97959.97;;;-1.83;75.09
48874;BME280;35220;46.204;5.220;2022-12-11T19:58:57;97956.19;;;-1.87;74.83
48874;BME280;35220;46.204;5.220;2022-12-11T20:04:10;97967.13;;;-1.72;74.67
48874;BME280;35220;46.204;5.220;2022-12-11T20:09:12;97968.16;;;-1.66;74.58
48874;BME280;35220;46.204;5.220;2022-12-11T20:14:20;97967.00;;;-1.63;74.21
48874;BME280;35220;46.204;5.220;2022-12-11T20:19:21;97961.09;;;-1.64;74.58
48874;BME280;35220;46.204;5.220;2022-12-11T20:24:21;97957.34;;;-1.68;74.34
48874;BME280;35220;46.204;5.220;2022-12-11T20:29:22;97953.88;;;-1.82;74.94
48874;BME280;35220;46.204;5.220;2022-12-11T20:34:26;97964.50;;;-1.78;75.14
48874;BME280;35220;46.204;5.220;2022-12-11T20:39:27;97957.22;;;-1.81;74.94
48874;BME280;35220;46.204;5.220;2022-12-11T20:44:30;97953.69;;;-1.80;75.00
48874;BME280;35220;46.204;5.220;2022-12-11T20:49:30;97955.22;;;-1.86;75.55
48874;BME280;35220;46.204;5.220;2022-12-11T20:54:32;97961.22;;;-2.00;75.32
48874;BME280;35220;46.204;5.220;2022-12-11T20:59:32;97966.25;;;-2.07;75.70
48874;BME280;35220;46.204;5.220;2022-12-11T21:04:37;97962.41;;;-1.96;75.79
48874;BME280;35220;46.204;5.220;2022-12-11T21:09:40;97970.13;;;-1.89;75.65
48874;BME280;35220;46.204;5.220;2022-12-11T21:14:41;97968.69;;;-1.99;75.37
48874;BME280;35220;46.204;5.220;2022-12-11T21:19:42;97961.44;;;-1.95;76.07
48874;BME280;35220;46.204;5.220;2022-12-11T21:24:42;97954.63;;;-1.88;75.55
48874;BME280;35220;46.204;5.220;2022-12-11T21:29:43;97961.72;;;-1.83;75.12
48874;BME280;35220;46.204;5.220;2022-12-11T21:34:43;97965.28;;;-1.78;75.25
48874;BME280;35220;46.204;5.220;2022-12-11T21:39:44;97975.97;;;-1.74;75.06
48874;BME280;35220;46.204;5.220;2022-12-11T21:44:44;97980.44;;;-1.76;75.31
48874;BME280;35220;46.204;5.220;2022-12-11T21:49:46;97959.97;;;-1.83;75.49
48874;BME280;35220;46.204;5.220;2022-12-11T21:54:46;97961.91;;;-1.85;75.46
48874;BME280;35220;46.204;5.220;2022-12-11T21:59:48;97961.19;;;-1.79;75.83
48874;BME280;35220;46.204;5.220;2022-12-11T22:04:49;97951.56;;;-1.77;75.73
48874;BME280;35220;46.204;5.220;2022-12-11T22:09:49;97953.00;;;-1.67;75.13
48874;BME280;35220;46.204;5.220;2022-12-11T22:14:50;97969.97;;;-1.60;75.45
48874;BME280;35220;46.204;5.220;2022-12-11T22:19:51;97970.00;;;-1.53;74.97
48874;BME280;35220;46.204;5.220;2022-12-11T22:24:51;97971.41;;;-1.50;75.33
48874;BME280;35220;46.204;5.220;2022-12-11T22:29:52;97972.38;;;-1.51;74.86
48874;BME280;35220;46.204;5.220;2022-12-11T22:34:52;97977.63;;;-1.60;74.83
48874;BME280;35220;46.204;5.220;2022-12-11T22:39:53;97983.88;;;-1.62;74.87
48874;BME280;35220;46.204;5.220;2022-12-11T22:44:53;97976.22;;;-1.62;75.20
48874;BME280;35220;46.204;5.220;2022-12-11T22:49:54;97983.41;;;-1.51;74.58
48874;BME280;35220;46.204;5.220;2022-12-11T22:54:54;97991.84;;;-1.50;75.22
48874;BME280;35220;46.204;5.220;2022-12-11T22:59:55;97981.47;;;-1.42;74.85
48874;BME280;35220;46.204;5.220;2022-12-11T23:04:58;97982.13;;;-1.34;74.37
48874;BME280;35220;46.204;5.220;2022-12-11T23:09:59;97994.28;;;-1.36;74.90
48874;BME280;35220;46.204;5.220;2022-12-11T23:14:59;97985.72;;;-1.28;74.45
48874;BME280;35220;46.204;5.220;2022-12-11T23:20:01;97988.34;;;-1.43;74.09
48874;BME280;35220;46.204;5.220;2022-12-11T23:25:03;97978.00;;;-1.35;74.76
48874;BME280;35220;46.204;5.220;2022-12-11T23:30:04;97975.22;;;-1.40;74.41
48874;BME280;35220;46.204;5.220;2022-12-11T23:35:05;97970.34;;;-1.35;74.56
48874;BME280;35220;46.204;5.220;2022-12-11T23:40:06;97969.56;;;-1.28;74.42
48874;BME280;35220;46.204;5.220;2022-12-11T23:45:08;97972.41;;;-1.17;74.50
48874;BME280;35220;46.204;5.220;2022-12-11T23:50:08;97979.94;;;-1.08;74.32
48874;BME280;35220;46.204;5.220;2022-12-11T23:55:09;97984.91;;;-1.57;74.88
